Time;durP1;ratioP1;P1;durP2;ratioP2;P2;SDS_P1;SDS_P2;PMS_P1;PMS_P2;Temp;Humidity;BMP_temperature;BMP_pressure;BME280_temperature;BME280_humidity;BME280_pressure;Samples;Min_cycle;Max_cycle;Signal;HPM_P1;HPM_P2
2024/02/15 00:02:16;;;;;;;0.63;0.50;;;;;;;;;;5013910;28;20068;-76
2024/02/15 00:04:42;;;;;;;0.70;0.70;;;;;;;;;;5013147;28;20030;-75
2024/02/15 00:07:09;;;;;;;0.60;0.60;;;;;;;;;;5023509;28;20108;-75
2024/02/15 00:09:35;;;;;;;1.40;0.60;;;;;;;;;;5020713;28;20022;-76
2024/02/15 00:12:03;;;;;;;0.98;0.68;;;;;;;;;;5012641;28;20737;-75
2024/02/15 00:14:31;;;;;;;0.70;0.70;;;;;;;;;;5012486;28;20080;-75
2024/02/15 00:16:57;;;;;;;1.27;0.90;;;;;;;;;;5013439;28;20061;-76
2024/02/15 00:19:24;;;;;;;0.95;0.80;;;;;;;;;;5018398;28;20100;-76
2024/02/15 00:21:50;;;;;;;1.52;0.60;;;;;;;;;;5027499;28;20037;-75
2024/02/15 00:24:16;;;;;;;0.57;0.57;;;;;;;;;;5023916;28;20072;-76
2024/02/15 00:26:42;;;;;;;0.70;0.70;;;;;;;;;;5033910;28;20025;-76
2024/02/15 00:29:09;;;;;;;0.50;0.50;;;;;;;;;;5043827;28;20491;-76
2024/02/15 00:31:38;;;;;;;1.15;0.80;;;;;;;;;;5035175;28;20025;-76
2024/02/15 00:34:04;;;;;;;0.50;0.50;;;;;;;;;;5035489;28;20120;-74
2024/02/15 00:36:30;;;;;;;1.05;0.68;;;;;;;;;;5049920;28;20026;-75
2024/02/15 00:38:56;;;;;;;0.50;0.50;;;;;;;;;;5027824;28;20050;-76
2024/02/15 00:41:22;;;;;;;0.55;0.55;;;;;;;;;;5027661;28;20034;-76
2024/02/15 00:43:49;;;;;;;0.65;0.65;;;;;;;;;;5013799;28;20037;-75
2024/02/15 00:46:16;;;;;;;0.50;0.50;;;;;;;;;;5010374;28;20029;-75
2024/02/15 00:48:42;;;;;;;0.50;0.50;;;;;;;;;;5013324;28;20025;-76
2024/02/15 00:51:09;;;;;;;0.50;0.50;;;;;;;;;;5019575;28;20402;-77
2024/02/15 00:53:35;;;;;;;0.50;0.50;;;;;;;;;;5015209;28;20065;-76
2024/02/15 00:56:01;;;;;;;0.88;0.57;;;;;;;;;;5027514;28;20024;-74
2024/02/15 00:58:27;;;;;;;0.40;0.40;;;;;;;;;;5050169;28;20018;-75
2024/02/15 01:00:53;;;;;;;0.40;0.40;;;;;;;;;;5033502;28;20032;-76
2024/02/15 01:03:25;;;;;;;0.50;0.50;;;;;;;;;;5034815;28;20030;-76
2024/02/15 01:05:51;;;;;;;0.52;0.52;;;;;;;;;;5034797;28;20038;-76
2024/02/15 01:08:18;;;;;;;0.50;0.50;;;;;;;;;;5041380;28;20022;-76
2024/02/15 01:10:44;;;;;;;0.57;0.43;;;;;;;;;;5037483;28;20038;-74
2024/02/15 01:13:10;;;;;;;0.95;0.60;;;;;;;;;;5039323;28;20037;-75
2024/02/15 01:15:37;;;;;;;0.60;0.60;;;;;;;;;;5035738;28;20028;-75
2024/02/15 01:18:03;;;;;;;0.85;0.65;;;;;;;;;;5018517;28;20025;-75
2024/02/15 01:20:30;;;;;;;1.27;0.70;;;;;;;;;;5017443;28;20390;-75
2024/02/15 01:22:56;;;;;;;1.67;0.60;;;;;;;;;;5017874;28;20018;-74
2024/02/15 01:25:22;;;;;;;0.52;0.47;;;;;;;;;;5030964;28;20495;-76
2024/02/15 01:27:48;;;;;;;1.00;0.50;;;;;;;;;;5017475;28;20496;-75
2024/02/15 01:30:14;;;;;;;0.73;0.70;;;;;;;;;;5014309;28;20037;-74
2024/02/15 01:32:42;;;;;;;0.80;0.55;;;;;;;;;;5014092;28;20022;-75
2024/02/15 01:35:09;;;;;;;0.95;0.55;;;;;;;;;;5015069;28;20024;-76
2024/02/15 01:37:36;;;;;;;0.60;0.60;;;;;;;;;;5010154;28;20030;-76
2024/02/15 01:40:03;;;;;;;0.47;0.47;;;;;;;;;;5012872;28;20034;-75
2024/02/15 01:42:29;;;;;;;0.40;0.40;;;;;;;;;;5014769;28;20037;-76
2024/02/15 01:44:55;;;;;;;0.57;0.43;;;;;;;;;;5015013;28;20109;-76
2024/02/15 01:47:22;;;;;;;0.73;0.47;;;;;;;;;;5009157;28;20074;-76
2024/02/15 01:49:49;;;;;;;0.47;0.47;;;;;;;;;;5014976;28;20021;-75
2024/02/15 01:52:17;;;;;;;0.70;0.65;;;;;;;;;;5029815;28;20018;-75
2024/02/15 01:54:43;;;;;;;0.70;0.60;;;;;;;;;;5014767;28;20036;-75
2024/02/15 01:57:09;;;;;;;0.47;0.43;;;;;;;;;;5014477;28;20175;-75
2024/02/15 01:59:35;;;;;;;0.73;0.57;;;;;;;;;;5015676;28;20026;-75
2024/02/15 02:02:03;;;;;;;0.45;0.45;;;;;;;;;;5015705;28;20037;-75
2024/02/15 02:04:31;;;;;;;0.60;0.60;;;;;;;;;;5014210;28;20030;-77
2024/02/15 02:06:59;;;;;;;1.02;0.50;;;;;;;;;;5010749;28;20061;-76
2024/02/15 02:09:25;;;;;;;0.40;0.40;;;;;;;;;;5010941;28;20026;-75
2024/02/15 02:11:52;;;;;;;0.50;0.50;;;;;;;;;;5027227;28;20024;-75
2024/02/15 02:14:20;;;;;;;0.70;0.70;;;;;;;;;;5032354;28;20034;-76
2024/02/15 02:16:46;;;;;;;0.50;0.50;;;;;;;;;;5013777;28;20010;-75
2024/02/15 02:19:12;;;;;;;0.98;0.57;;;;;;;;;;5014452;28;20036;-75
2024/02/15 02:21:39;;;;;;;0.55;0.55;;;;;;;;;;5014233;28;20045;-75
2024/02/15 02:24:12;;;;;;;0.63;0.63;;;;;;;;;;5010870;28;20022;-76
2024/02/15 02:26:38;;;;;;;0.70;0.60;;;;;;;;;;5006084;28;20017;-75
2024/02/15 02:29:04;;;;;;;0.73;0.70;;;;;;;;;;5014760;28;20045;-75
2024/02/15 02:31:37;;;;;;;0.50;0.50;;;;;;;;;;5014069;28;20018;-76
2024/02/15 02:34:03;;;;;;;;;;;;;;;;;;5012964;28;20284;-75
2024/02/15 02:36:29;;;;;;;0.57;0.57;;;;;;;;;;5016620;28;19905;-76
2024/02/15 02:39:00;;;;;;;0.40;0.40;;;;;;;;;;5013287;28;20072;-75
2024/02/15 02:41:26;;;;;;;0.88;0.50;;;;;;;;;;5015951;28;20456;-74
2024/02/15 02:43:52;;;;;;;1.15;0.93;;;;;;;;;;5032013;28;20089;-76
2024/02/15 02:46:18;;;;;;;0.77;0.70;;;;;;;;;;5030999;28;20037;-76
2024/02/15 02:48:44;;;;;;;0.80;0.43;;;;;;;;;;5026613;28;20026;-76
2024/02/15 02:51:10;;;;;;;0.60;0.60;;;;;;;;;;5042694;28;20619;-76
2024/02/15 02:53:37;;;;;;;0.70;0.70;;;;;;;;;;5027857;28;20026;-75
2024/02/15 02:56:03;;;;;;;1.08;0.50;;;;;;;;;;5030504;28;20038;-75
2024/02/15 02:58:29;;;;;;;0.40;0.40;;;;;;;;;;5036126;28;20018;-74
2024/02/15 03:01:00;;;;;;;1.63;0.73;;;;;;;;;;5035506;28;20039;-75
2024/02/15 03:03:26;;;;;;;0.80;0.80;;;;;;;;;;5037726;28;20113;-76
2024/02/15 03:05:53;;;;;;;0.65;0.60;;;;;;;;;;5052156;28;20038;-74
2024/02/15 03:08:20;;;;;;;0.35;0.35;;;;;;;;;;5035811;28;20025;-76
2024/02/15 03:10:46;;;;;;;0.47;0.47;;;;;;;;;;5034665;28;20014;-75
2024/02/15 03:13:12;;;;;;;0.30;0.30;;;;;;;;;;5016969;28;20030;-76
2024/02/15 03:15:41;;;;;;;0.40;0.40;;;;;;;;;;5015365;28;20034;-75
2024/02/15 03:18:08;;;;;;;0.30;0.30;;;;;;;;;;5022765;28;20017;-76
2024/02/15 03:20:37;;;;;;;0.77;0.50;;;;;;;;;;5014581;28;20404;-75
2024/02/15 03:23:03;;;;;;;0.70;0.52;;;;;;;;;;5014511;28;20029;-75
2024/02/15 03:25:29;;;;;;;0.35;0.32;;;;;;;;;;5021936;28;20029;-77
2024/02/15 03:28:03;;;;;;;0.45;0.40;;;;;;;;;;5013905;28;20424;-77
2024/02/15 03:30:30;;;;;;;0.30;0.30;;;;;;;;;;5014272;28;20091;-76
2024/02/15 03:32:57;;;;;;;0.32;0.32;;;;;;;;;;5013573;28;20037;-76
2024/02/15 03:35:24;;;;;;;0.73;0.57;;;;;;;;;;5013151;28;20025;-76
2024/02/15 03:37:51;;;;;;;0.55;0.30;;;;;;;;;;5013240;28;20032;-75
2024/02/15 03:40:17;;;;;;;0.30;0.30;;;;;;;;;;5013575;28;20034;-76
2024/02/15 03:42:43;;;;;;;0.60;0.60;;;;;;;;;;5013605;28;20018;-76
2024/02/15 03:45:10;;;;;;;0.30;0.30;;;;;;;;;;5013638;28;20099;-76
2024/02/15 03:47:37;;;;;;;0.15;0.15;;;;;;;;;;5009032;28;20481;-76
2024/02/15 03:50:08;;;;;;;0.35;0.35;;;;;;;;;;5010424;28;20037;-75
2024/02/15 03:52:34;;;;;;;0.50;0.40;;;;;;;;;;5010759;28;20038;-76
2024/02/15 03:55:01;;;;;;;0.38;0.38;;;;;;;;;;5012700;28;20489;-77
2024/02/15 03:57:28;;;;;;;0.80;0.35;;;;;;;;;;5010935;28;20033;-76
2024/02/15 03:59:56;;;;;;;0.20;0.20;;;;;;;;;;5012517;28;20032;-75
2024/02/15 04:02:23;;;;;;;0.28;0.28;;;;;;;;;;5011099;28;20033;-76
2024/02/15 04:04:52;;;;;;;0.20;0.20;;;;;;;;;;5012284;28;20049;-76
2024/02/15 04:07:18;;;;;;;0.35;0.20;;;;;;;;;;5010881;28;20022;-75
2024/02/15 04:09:45;;;;;;;0.20;0.20;;;;;;;;;;5012462;28;20029;-75
2024/02/15 04:12:11;;;;;;;0.13;0.13;;;;;;;;;;5012742;28;20022;-76
2024/02/15 04:14:44;;;;;;;0.20;0.20;;;;;;;;;;5012348;28;20029;-75
2024/02/15 04:17:10;;;;;;;0.47;0.15;;;;;;;;;;5031534;28;20385;-76
2024/02/15 04:19:37;;;;;;;0.98;0.50;;;;;;;;;;5022939;28;20039;-77
2024/02/15 04:22:07;;;;;;;0.20;0.20;;;;;;;;;;5020496;28;20477;-77
2024/02/15 04:24:33;;;;;;;0.20;0.20;;;;;;;;;;5020641;28;20021;-75
2024/02/15 04:27:01;;;;;;;0.25;0.25;;;;;;;;;;5024084;28;20037;-74
2024/02/15 04:29:27;;;;;;;0.20;0.20;;;;;;;;;;5022464;28;20033;-75
2024/02/15 04:31:54;;;;;;;0.45;0.30;;;;;;;;;;5022789;28;20081;-76
2024/02/15 04:34:20;;;;;;;0.10;0.10;;;;;;;;;;5015153;28;20022;-76
2024/02/15 04:36:50;;;;;;;0.15;0.15;;;;;;;;;;5017458;28;20034;-75
2024/02/15 04:39:24;;;;;;;0.60;0.55;;;;;;;;;;5013464;28;20029;-75
2024/02/15 04:41:51;;;;;;;0.40;0.30;;;;;;;;;;5018153;28;20459;-74
2024/02/15 04:44:20;;;;;;;0.17;0.10;;;;;;;;;;5020684;28;20043;-75
2024/02/15 04:46:46;;;;;;;0.30;0.30;;;;;;;;;;5023377;28;20481;-75
2024/02/15 04:49:13;;;;;;;0.45;0.35;;;;;;;;;;5020834;28;20465;-75
2024/02/15 04:51:40;;;;;;;0.20;0.20;;;;;;;;;;5013694;28;20038;-76
2024/02/15 04:54:07;;;;;;;0.35;0.35;;;;;;;;;;5023968;28;20052;-74
2024/02/15 04:56:33;;;;;;;0.68;0.43;;;;;;;;;;5021412;28;20484;-75
2024/02/15 04:58:59;;;;;;;0.20;0.20;;;;;;;;;;5026693;28;20040;-75
2024/02/15 05:01:25;;;;;;;0.20;0.20;;;;;;;;;;5038543;28;20088;-75
2024/02/15 05:03:51;;;;;;;0.43;0.30;;;;;;;;;;5016308;28;20033;-76
2024/02/15 05:06:19;;;;;;;0.30;0.30;;;;;;;;;;5018783;28;20096;-75
2024/02/15 05:08:47;;;;;;;0.38;0.38;;;;;;;;;;5016984;28;20018;-75
2024/02/15 05:11:19;;;;;;;0.63;0.52;;;;;;;;;;5017937;28;20072;-75
2024/02/15 05:13:46;;;;;;;0.45;0.45;;;;;;;;;;5016793;28;20026;-75
2024/02/15 05:16:12;;;;;;;0.35;0.35;;;;;;;;;;5020507;28;20113;-76
2024/02/15 05:18:41;;;;;;;0.25;0.25;;;;;;;;;;5020364;28;20498;-77
2024/02/15 05:21:11;;;;;;;0.40;0.38;;;;;;;;;;5016707;28;20037;-75
2024/02/15 05:23:39;;;;;;;0.15;0.15;;;;;;;;;;5017274;28;20357;-75
2024/02/15 05:26:05;;;;;;;0.85;0.40;;;;;;;;;;5016727;28;20101;-75
2024/02/15 05:28:32;;;;;;;0.32;0.32;;;;;;;;;;5019593;28;20017;-75
2024/02/15 05:31:25;;;;;;;0.30;0.30;;;;;;;;;;5019173;28;20049;-77
2024/02/15 05:33:51;;;;;;;0.30;0.30;;;;;;;;;;5020271;28;20076;-75
2024/02/15 05:36:20;;;;;;;0.43;0.40;;;;;;;;;;5017655;28;20037;-75
2024/02/15 05:38:46;;;;;;;0.80;0.30;;;;;;;;;;5024534;28;20060;-76
2024/02/15 05:41:12;;;;;;;0.60;0.30;;;;;;;;;;5034802;28;20052;-75
2024/02/15 05:43:41;;;;;;;0.40;0.40;;;;;;;;;;5015809;28;20091;-76
2024/02/15 05:46:08;;;;;;;0.90;0.40;;;;;;;;;;5016901;28;20030;-76
2024/02/15 05:48:35;;;;;;;0.35;0.30;;;;;;;;;;5028017;28;20093;-75
2024/02/15 05:51:05;;;;;;;0.73;0.30;;;;;;;;;;5017329;28;20018;-75
2024/02/15 05:53:35;;;;;;;0.45;0.20;;;;;;;;;;5021421;28;20123;-75
2024/02/15 05:56:11;;;;;;;0.80;0.30;;;;;;;;;;5024253;28;20089;-75
2024/02/15 05:58:38;;;;;;;0.32;0.32;;;;;;;;;;5027973;28;20033;-75
2024/02/15 06:01:06;;;;;;;0.32;0.30;;;;;;;;;;5031572;28;20039;-75
2024/02/15 06:03:33;;;;;;;0.73;0.40;;;;;;;;;;5029716;28;20034;-76
2024/02/15 06:06:01;;;;;;;0.20;0.20;;;;;;;;;;5028339;28;20117;-76
2024/02/15 06:08:31;;;;;;;0.30;0.30;;;;;;;;;;5029862;28;20531;-75
2024/02/15 06:10:57;;;;;;;0.25;0.25;;;;;;;;;;5019332;28;20030;-76
2024/02/15 06:13:24;;;;;;;0.20;0.20;;;;;;;;;;5016163;28;20021;-75
2024/02/15 06:15:53;;;;;;;0.30;0.30;;;;;;;;;;5017297;28;20014;-75
2024/02/15 06:18:29;;;;;;;0.35;0.22;;;;;;;;;;5030859;28;20036;-75
2024/02/15 06:21:03;;;;;;;0.28;0.22;;;;;;;;;;5026576;28;20037;-75
2024/02/15 06:23:29;;;;;;;0.30;0.30;;;;;;;;;;5039160;28;20029;-75
2024/02/15 06:25:57;;;;;;;0.47;0.30;;;;;;;;;;5016481;28;20030;-76
2024/02/15 06:39:41;;;;;;;0.25;0.25;;;;;;;;;;5018358;28;20045;-74
2024/02/15 06:42:11;;;;;;;0.30;0.30;;;;;;;;;;5018691;28;20156;-76
2024/02/15 06:44:40;;;;;;;0.38;0.30;;;;;;;;;;5021241;28;20055;-78
2024/02/15 06:47:06;;;;;;;1.67;0.30;;;;;;;;;;5021384;28;20040;-75
2024/02/15 06:49:33;;;;;;;0.30;0.30;;;;;;;;;;5026970;28;20068;-76
2024/02/15 06:52:01;;;;;;;0.68;0.30;;;;;;;;;;5032742;28;20041;-76
2024/02/15 06:54:28;;;;;;;0.70;0.40;;;;;;;;;;5018789;28;20033;-75
2024/02/15 06:56:54;;;;;;;0.40;0.40;;;;;;;;;;5029831;28;20057;-76
2024/02/15 06:59:22;;;;;;;1.05;0.50;;;;;;;;;;5014961;28;20381;-76
2024/02/15 07:01:48;;;;;;;0.57;0.35;;;;;;;;;;5013342;28;20529;-77
2024/02/15 07:04:14;;;;;;;0.55;0.40;;;;;;;;;;5015145;28;20037;-77
2024/02/15 07:06:44;;;;;;;1.45;0.73;;;;;;;;;;5016480;28;20105;-76
2024/02/15 07:09:10;;;;;;;0.68;0.40;;;;;;;;;;5014867;28;20017;-77
2024/02/15 07:11:37;;;;;;;0.70;0.63;;;;;;;;;;5016409;28;20022;-77
2024/02/15 07:14:06;;;;;;;1.08;0.45;;;;;;;;;;5011723;28;20450;-76
2024/02/15 07:16:33;;;;;;;0.30;0.30;;;;;;;;;;5012630;28;20022;-77
2024/02/15 07:18:59;;;;;;;0.50;0.50;;;;;;;;;;5004600;28;20029;-77
2024/02/15 07:21:26;;;;;;;1.00;0.57;;;;;;;;;;5018314;28;20032;-77
2024/02/15 07:23:54;;;;;;;1.08;0.43;;;;;;;;;;5014296;28;20048;-77
2024/02/15 07:26:20;;;;;;;0.40;0.40;;;;;;;;;;5014272;28;20075;-78
2024/02/15 07:28:48;;;;;;;1.38;0.63;;;;;;;;;;5014258;28;20041;-76
2024/02/15 07:31:14;;;;;;;0.77;0.77;;;;;;;;;;5014542;28;20045;-76
2024/02/15 07:33:43;;;;;;;0.95;0.82;;;;;;;;;;5014960;28;20075;-77
2024/02/15 07:36:09;;;;;;;0.98;0.77;;;;;;;;;;5015410;28;20026;-76
2024/02/15 07:38:35;;;;;;;1.25;0.75;;;;;;;;;;5014447;28;20080;-77
2024/02/15 07:41:02;;;;;;;0.95;0.75;;;;;;;;;;5013458;28;20080;-76
2024/02/15 07:43:28;;;;;;;0.82;0.70;;;;;;;;;;5014061;28;20037;-77
2024/02/15 07:45:54;;;;;;;0.95;0.82;;;;;;;;;;5014244;28;20696;-75
2024/02/15 07:48:21;;;;;;;0.98;0.70;;;;;;;;;;5014108;28;20489;-76
2024/02/15 07:50:48;;;;;;;1.02;0.55;;;;;;;;;;5014376;28;20139;-76
2024/02/15 07:53:14;;;;;;;0.85;0.60;;;;;;;;;;5014499;28;20022;-75
2024/02/15 07:55:41;;;;;;;1.20;0.50;;;;;;;;;;5016282;28;20492;-75
2024/02/15 07:58:08;;;;;;;0.63;0.60;;;;;;;;;;5014506;28;20034;-76
2024/02/15 08:00:35;;;;;;;0.40;0.40;;;;;;;;;;5020763;28;20030;-76
2024/02/15 08:03:01;;;;;;;0.45;0.45;;;;;;;;;;5021856;28;20552;-77
2024/02/15 08:05:29;;;;;;;0.88;0.85;;;;;;;;;;5020852;28;20032;-76
2024/02/15 08:07:57;;;;;;;0.30;0.30;;;;;;;;;;5031060;28;20035;-76
2024/02/15 08:10:23;;;;;;;0.50;0.50;;;;;;;;;;5034959;28;20093;-75
2024/02/15 08:12:52;;;;;;;0.35;0.35;;;;;;;;;;5006904;28;20032;-75
2024/02/15 08:15:18;;;;;;;0.98;0.77;;;;;;;;;;5013937;28;20028;-76
2024/02/15 08:17:48;;;;;;;0.75;0.52;;;;;;;;;;5007923;28;20030;-78
2024/02/15 08:20:21;;;;;;;0.50;0.50;;;;;;;;;;5014524;28;20064;-75
2024/02/15 08:22:48;;;;;;;0.52;0.52;;;;;;;;;;5014685;28;20041;-77
2024/02/15 08:25:18;;;;;;;0.80;0.60;;;;;;;;;;5028483;28;20049;-78
2024/02/15 08:27:49;;;;;;;0.70;0.52;;;;;;;;;;5028069;28;20014;-77
2024/02/15 08:30:15;;;;;;;0.60;0.47;;;;;;;;;;5019887;28;20025;-76
2024/02/15 08:32:42;;;;;;;0.75;0.60;;;;;;;;;;5034011;28;20026;-75
2024/02/15 08:35:11;;;;;;;0.47;0.47;;;;;;;;;;5022566;28;20074;-81
2024/02/15 08:37:38;;;;;;;1.58;0.70;;;;;;;;;;5020729;28;20029;-80
2024/02/15 08:40:10;;;;;;;0.55;0.40;;;;;;;;;;5032642;28;20022;-79
2024/02/15 08:42:38;;;;;;;2.22;1.15;;;;;;;;;;5017220;28;20021;-79
2024/02/15 08:45:05;;;;;;;0.60;0.60;;;;;;;;;;5017664;28;20022;-80
2024/02/15 08:47:31;;;;;;;1.35;0.80;;;;;;;;;;5025276;28;20121;-80
2024/02/15 08:49:59;;;;;;;0.80;0.50;;;;;;;;;;5016609;28;20026;-80
2024/02/15 08:52:26;;;;;;;0.47;0.47;;;;;;;;;;5033002;28;20028;-79
2024/02/15 08:54:52;;;;;;;0.75;0.70;;;;;;;;;;5022056;28;20033;-79
2024/02/15 08:57:19;;;;;;;0.80;0.47;;;;;;;;;;5019848;28;20034;-80
2024/02/15 08:59:45;;;;;;;0.57;0.57;;;;;;;;;;5019619;28;20045;-78
2024/02/15 09:02:11;;;;;;;0.73;0.60;;;;;;;;;;5031554;28;20075;-79
2024/02/15 09:04:37;;;;;;;0.50;0.40;;;;;;;;;;5035205;28;20041;-79
2024/02/15 09:07:04;;;;;;;0.43;0.43;;;;;;;;;;5021432;28;20060;-79
2024/02/15 09:09:31;;;;;;;0.40;0.40;;;;;;;;;;5017247;28;20076;-80
2024/02/15 09:11:58;;;;;;;0.43;0.30;;;;;;;;;;5017571;28;20026;-79
2024/02/15 09:14:24;;;;;;;0.45;0.45;;;;;;;;;;5020644;28;20026;-80
2024/02/15 09:16:50;;;;;;;0.40;0.40;;;;;;;;;;5021146;28;20078;-80
2024/02/15 09:19:16;;;;;;;0.50;0.50;;;;;;;;;;5013260;28;20061;-78
2024/02/15 09:21:42;;;;;;;0.40;0.40;;;;;;;;;;5015035;28;20030;-77
2024/02/15 09:24:08;;;;;;;0.40;0.40;;;;;;;;;;5023283;28;20370;-77
2024/02/15 09:26:36;;;;;;;0.40;0.40;;;;;;;;;;5015703;28;20026;-77
2024/02/15 09:29:02;;;;;;;0.70;0.52;;;;;;;;;;5017204;28;20097;-79
2024/02/15 09:31:28;;;;;;;0.45;0.45;;;;;;;;;;5020020;28;20022;-79
2024/02/15 09:33:54;;;;;;;0.35;0.35;;;;;;;;;;5019599;28;20077;-77
2024/02/15 09:36:20;;;;;;;1.15;0.60;;;;;;;;;;5018730;28;20026;-78
2024/02/15 09:38:46;;;;;;;0.50;0.50;;;;;;;;;;5029728;28;20040;-77
2024/02/15 09:41:13;;;;;;;0.40;0.40;;;;;;;;;;5029753;28;20041;-77
2024/02/15 09:43:39;;;;;;;0.40;0.40;;;;;;;;;;5018315;28;20080;-77
2024/02/15 09:46:06;;;;;;;0.40;0.40;;;;;;;;;;5018330;28;20477;-77
2024/02/15 09:48:32;;;;;;;0.40;0.40;;;;;;;;;;5040254;28;20036;-78
2024/02/15 09:51:01;;;;;;;0.60;0.43;;;;;;;;;;5014655;28;20037;-78
2024/02/15 09:53:28;;;;;;;0.40;0.40;;;;;;;;;;5018929;28;20018;-78
2024/02/15 09:55:55;;;;;;;0.40;0.40;;;;;;;;;;5019013;28;20491;-78
2024/02/15 09:58:23;;;;;;;0.90;0.50;;;;;;;;;;5019814;28;20623;-78
2024/02/15 10:00:49;;;;;;;0.55;0.47;;;;;;;;;;5019464;28;20029;-78
2024/02/15 10:03:18;;;;;;;0.32;0.32;;;;;;;;;;5019220;28;20026;-78
2024/02/15 10:05:45;;;;;;;0.47;0.47;;;;;;;;;;5017831;28;20041;-77
2024/02/15 10:08:11;;;;;;;0.52;0.50;;;;;;;;;;5023773;28;20030;-77
2024/02/15 10:10:37;;;;;;;0.50;0.50;;;;;;;;;;5020196;28;20021;-79
2024/02/15 10:13:03;;;;;;;0.32;0.32;;;;;;;;;;5022959;28;20040;-79
2024/02/15 10:15:33;;;;;;;1.02;0.57;;;;;;;;;;5024495;28;20022;-81
2024/02/15 10:18:00;;;;;;;0.50;0.50;;;;;;;;;;5023853;28;20022;-80
2024/02/15 10:20:26;;;;;;;0.93;0.68;;;;;;;;;;5022476;28;20025;-80
2024/02/15 10:22:58;;;;;;;3.03;0.88;;;;;;;;;;5023093;28;20041;-79
2024/02/15 10:25:24;;;;;;;;;;;;;;;;;;5038911;28;20447;-79
2024/02/15 10:27:51;;;;;;;0.50;0.40;;;;;;;;;;5023727;28;19913;-80
2024/02/15 10:30:20;;;;;;;0.50;0.43;;;;;;;;;;5047521;28;20025;-79
2024/02/15 10:32:48;;;;;;;0.55;0.52;;;;;;;;;;5026103;28;20097;-81
2024/02/15 10:35:21;;;;;;;0.30;0.30;;;;;;;;;;5024579;28;20496;-82
2024/02/15 10:37:50;;;;;;;0.45;0.45;;;;;;;;;;5033842;28;20060;-80
2024/02/15 10:40:19;;;;;;;0.50;0.50;;;;;;;;;;5037814;28;20022;-79
2024/02/15 10:42:56;;;;;;;0.77;0.50;;;;;;;;;;5025383;28;20041;-82
2024/02/15 10:45:22;;;;;;;0.45;0.30;;;;;;;;;;5017386;28;20499;-78
2024/02/15 10:47:48;;;;;;;0.20;0.20;;;;;;;;;;5017372;28;20049;-77
2024/02/15 10:50:16;;;;;;;0.70;0.25;;;;;;;;;;5018585;28;20030;-76
2024/02/15 10:52:58;;;;;;;0.43;0.40;;;;;;;;;;5011953;28;20025;-76
2024/02/15 10:55:33;;;;;;;0.52;0.22;;;;;;;;;;5015893;28;20033;-76
2024/02/15 10:58:04;;;;;;;1.30;0.60;;;;;;;;;;5016017;28;20026;-76
2024/02/15 11:00:31;;;;;;;0.30;0.30;;;;;;;;;;5016353;28;20049;-76
2024/02/15 11:03:07;;;;;;;0.20;0.20;;;;;;;;;;5014255;28;20405;-77
2024/02/15 11:05:38;;;;;;;1.65;0.55;;;;;;;;;;5013552;28;20022;-77
2024/02/15 11:08:08;;;;;;;0.60;0.55;;;;;;;;;;5024198;28;20022;-77
2024/02/15 11:10:36;;;;;;;0.45;0.38;;;;;;;;;;5015589;28;20105;-77
2024/02/15 11:13:02;;;;;;;0.47;0.43;;;;;;;;;;5015218;28;20404;-77
2024/02/15 11:15:51;;;;;;;0.93;0.70;;;;;;;;;;5014596;28;20111;-77
2024/02/15 11:18:36;;;;;;;0.70;0.40;;;;;;;;;;5015445;28;20018;-77
2024/02/15 11:21:02;;;;;;;0.55;0.38;;;;;;;;;;5017666;28;20210;-77
2024/02/15 11:23:28;;;;;;;0.30;0.30;;;;;;;;;;5011684;28;20053;-78
2024/02/15 11:25:56;;;;;;;0.52;0.38;;;;;;;;;;5006663;28;20461;-76
2024/02/15 11:28:22;;;;;;;0.40;0.40;;;;;;;;;;5015529;28;20243;-77
2024/02/15 11:30:51;;;;;;;0.65;0.50;;;;;;;;;;5016171;28;20041;-77
2024/02/15 11:33:30;;;;;;;1.67;0.47;;;;;;;;;;5010863;28;20022;-77
2024/02/15 11:36:12;;;;;;;0.55;0.45;;;;;;;;;;5005486;28;20026;-78
2024/02/15 11:38:45;;;;;;;0.30;0.30;;;;;;;;;;5025588;28;20080;-77
2024/02/15 11:41:11;;;;;;;0.50;0.50;;;;;;;;;;5007215;28;20072;-78
2024/02/15 11:43:49;;;;;;;0.50;0.50;;;;;;;;;;5007014;28;20096;-77
2024/02/15 11:46:19;;;;;;;0.70;0.38;;;;;;;;;;5005317;28;20026;-77
2024/02/15 11:48:48;;;;;;;0.45;0.40;;;;;;;;;;5009604;28;20028;-77
2024/02/15 11:51:31;;;;;;;0.38;0.38;;;;;;;;;;5010236;28;20026;-76
2024/02/15 11:54:06;;;;;;;0.30;0.30;;;;;;;;;;5007570;28;20045;-76
2024/02/15 11:57:13;;;;;;;0.57;0.30;;;;;;;;;;5016052;28;20030;-77
2024/02/15 11:59:53;;;;;;;0.40;0.40;;;;;;;;;;5032027;28;20571;-77
2024/02/15 12:18:53;;;;;;;1.45;0.57;;;;;;;;;;5014386;28;20033;-76
2024/02/15 12:21:28;;;;;;;0.30;0.30;;;;;;;;;;5014513;28;20025;-77
2024/02/15 12:23:54;;;;;;;1.08;0.35;;;;;;;;;;5014162;28;20109;-77
2024/02/15 12:26:21;;;;;;;0.40;0.40;;;;;;;;;;5014288;28;20054;-77
2024/02/15 12:28:51;;;;;;;0.50;0.47;;;;;;;;;;5015315;28;20014;-77
2024/02/15 12:31:19;;;;;;;0.77;0.40;;;;;;;;;;5017458;28;20024;-77
2024/02/15 12:33:46;;;;;;;0.25;0.25;;;;;;;;;;5023282;28;20053;-77
2024/02/15 12:36:12;;;;;;;0.32;0.32;;;;;;;;;;5044230;28;20115;-76
2024/02/15 12:38:39;;;;;;;0.30;0.30;;;;;;;;;;5032048;28;20017;-76
2024/02/15 12:41:18;;;;;;;0.30;0.30;;;;;;;;;;5030376;28;20025;-77
2024/02/15 12:43:44;;;;;;;0.45;0.32;;;;;;;;;;5025879;28;20102;-77
2024/02/15 12:46:12;;;;;;;0.38;0.38;;;;;;;;;;5037894;28;20053;-77
2024/02/15 12:48:40;;;;;;;0.35;0.35;;;;;;;;;;5017416;28;20084;-78
2024/02/15 12:51:16;;;;;;;0.30;0.30;;;;;;;;;;5014439;28;20017;-78
2024/02/15 12:53:42;;;;;;;0.10;0.10;;;;;;;;;;5016595;28;20052;-78
2024/02/15 12:56:14;;;;;;;0.30;0.30;;;;;;;;;;5018847;28;20030;-78
2024/02/15 12:58:40;;;;;;;0.63;0.20;;;;;;;;;;5017846;28;20473;-78
2024/02/15 13:01:09;;;;;;;0.30;0.30;;;;;;;;;;5017151;28;20026;-77
2024/02/15 13:03:35;;;;;;;0.30;0.30;;;;;;;;;;5016457;28;20010;-77
2024/02/15 13:06:01;;;;;;;0.38;0.30;;;;;;;;;;5015134;28;20032;-78
2024/02/15 13:08:28;;;;;;;0.30;0.30;;;;;;;;;;5017661;28;20021;-77
2024/02/15 13:10:56;;;;;;;0.30;0.30;;;;;;;;;;5018821;28;20018;-77
2024/02/15 13:13:22;;;;;;;0.20;0.20;;;;;;;;;;5020913;28;20041;-78
2024/02/15 13:15:48;;;;;;;0.30;0.30;;;;;;;;;;5019644;28;20030;-78
2024/02/15 13:18:15;;;;;;;0.52;0.35;;;;;;;;;;5026349;28;20065;-76
2024/02/15 13:20:41;;;;;;;0.60;0.40;;;;;;;;;;5017989;28;20083;-78
2024/02/15 13:23:08;;;;;;;0.20;0.20;;;;;;;;;;5020457;28;20040;-78
2024/02/15 13:25:39;;;;;;;0.52;0.40;;;;;;;;;;5019011;28;20022;-78
2024/02/15 13:28:06;;;;;;;0.63;0.60;;;;;;;;;;5020460;28;20018;-79
2024/02/15 13:30:33;;;;;;;0.45;0.40;;;;;;;;;;5021633;28;20045;-79
2024/02/15 13:32:59;;;;;;;0.30;0.30;;;;;;;;;;5019441;28;20018;-78
2024/02/15 13:35:25;;;;;;;0.20;0.20;;;;;;;;;;5018960;28;20030;-78
2024/02/15 13:37:55;;;;;;;0.43;0.40;;;;;;;;;;5018229;28;20117;-79
2024/02/15 13:40:25;;;;;;;0.43;0.43;;;;;;;;;;5017943;28;20022;-77
2024/02/15 13:42:58;;;;;;;0.30;0.30;;;;;;;;;;5017004;28;20030;-76
2024/02/15 13:45:39;;;;;;;0.75;0.55;;;;;;;;;;5016699;28;20152;-77
2024/02/15 13:48:07;;;;;;;0.50;0.50;;;;;;;;;;5017235;28;20026;-77
2024/02/15 13:50:33;;;;;;;0.30;0.30;;;;;;;;;;5010093;28;20420;-77
2024/02/15 13:53:00;;;;;;;0.25;0.25;;;;;;;;;;5017490;28;20030;-76
2024/02/15 13:55:26;;;;;;;0.50;0.50;;;;;;;;;;5016585;28;20025;-76
2024/02/15 13:57:56;;;;;;;0.60;0.60;;;;;;;;;;5016042;28;20065;-77
2024/02/15 14:00:23;;;;;;;0.88;0.65;;;;;;;;;;5015223;28;20037;-75
2024/02/15 14:02:49;;;;;;;0.40;0.40;;;;;;;;;;5015846;28;20499;-78
2024/02/15 14:05:19;;;;;;;1.23;0.47;;;;;;;;;;5017578;28;20049;-76
2024/02/15 14:07:46;;;;;;;0.40;0.40;;;;;;;;;;5013168;28;20477;-76
2024/02/15 14:10:12;;;;;;;0.75;0.60;;;;;;;;;;5017208;28;20071;-76
2024/02/15 14:12:39;;;;;;;0.40;0.40;;;;;;;;;;5017222;28;20025;-75
2024/02/15 14:15:05;;;;;;;0.45;0.40;;;;;;;;;;5015871;28;20022;-76
2024/02/15 14:17:35;;;;;;;0.30;0.30;;;;;;;;;;5015065;28;20033;-76
2024/02/15 14:20:01;;;;;;;0.40;0.40;;;;;;;;;;5014534;28;20366;-76
2024/02/15 14:22:29;;;;;;;0.30;0.30;;;;;;;;;;5014044;28;20026;-76
2024/02/15 14:24:55;;;;;;;0.55;0.43;;;;;;;;;;5015910;28;20037;-76
2024/02/15 14:27:22;;;;;;;0.50;0.40;;;;;;;;;;5017331;28;20025;-75
2024/02/15 14:35:20;;;;;;;0.28;0.28;;;;;;;;;;5016912;28;20033;-76
2024/02/15 14:37:46;;;;;;;0.47;0.45;;;;;;;;;;5046546;28;20026;-75
2024/02/15 14:40:14;;;;;;;0.30;0.30;;;;;;;;;;5034674;28;20029;-77
2024/02/15 14:42:41;;;;;;;0.40;0.40;;;;;;;;;;5035675;28;20018;-76
2024/02/15 14:45:09;;;;;;;0.40;0.40;;;;;;;;;;5036485;28;20009;-74
2024/02/15 14:47:35;;;;;;;0.70;0.60;;;;;;;;;;5037010;28;20037;-77
2024/02/15 14:50:01;;;;;;;0.57;0.52;;;;;;;;;;5036164;28;20090;-76
2024/02/15 14:52:27;;;;;;;0.50;0.50;;;;;;;;;;5036394;28;20057;-77
2024/02/15 14:54:54;;;;;;;0.30;0.30;;;;;;;;;;5036865;28;20018;-78
2024/02/15 14:57:20;;;;;;;0.40;0.40;;;;;;;;;;5027900;28;20022;-77
2024/02/15 14:59:46;;;;;;;0.30;0.30;;;;;;;;;;5012294;28;20022;-77
2024/02/15 15:02:12;;;;;;;0.65;0.52;;;;;;;;;;5015880;28;20420;-76
2024/02/15 15:12:35;;;;;;;0.43;0.43;;;;;;;;;;5015773;28;20076;-77
2024/02/15 15:13:02;;;;;;;0.68;0.47;;;;;;;;;;5007148;28;20464;-77
2024/02/15 15:15:29;;;;;;;0.43;0.43;;;;;;;;;;5015256;28;20488;-77
2024/02/15 15:17:55;;;;;;;0.50;0.50;;;;;;;;;;5014014;28;20041;-77
2024/02/15 15:20:21;;;;;;;1.90;0.80;;;;;;;;;;5016575;28;20718;-77
2024/02/15 15:22:48;;;;;;;0.85;0.63;;;;;;;;;;5022523;28;20496;-77
2024/02/15 15:25:14;;;;;;;0.82;0.73;;;;;;;;;;5014101;28;20025;-78
2024/02/15 15:27:40;;;;;;;1.35;0.85;;;;;;;;;;5013189;28;20021;-78